createdAt,value
2022-11-17T00:01:19.406Z,9.35
2022-11-17T00:03:49.062Z,9.43
2022-11-17T00:06:15.769Z,9.25
2022-11-17T00:08:42.276Z,9.63
2022-11-17T00:11:08.808Z,9.40
2022-11-17T00:13:53.875Z,7.40
2022-11-17T00:16:20.625Z,9.60
2022-11-17T00:19:05.814Z,7.57
2022-11-17T00:21:32.329Z,7.90
2022-11-17T00:23:58.884Z,8.48
2022-11-17T00:26:32.406Z,7.88
2022-11-17T00:29:00.335Z,7.68
2022-11-17T00:31:46.901Z,8.18
2022-11-17T00:34:15.434Z,9.38
2022-11-17T00:36:46.915Z,9.25
2022-11-17T00:39:15.648Z,7.78
2022-11-17T00:41:42.213Z,7.82
2022-11-17T00:44:08.772Z,7.07
2022-11-17T00:46:35.563Z,11.32
2022-11-17T00:49:02.043Z,8.23
2022-11-17T00:51:28.518Z,6.10
2022-11-17T00:53:55.054Z,5.43
2022-11-17T00:56:21.550Z,5.65
2022-11-17T00:58:48.028Z,7.18
2022-11-17T01:01:14.691Z,6.35
2022-11-17T01:03:41.224Z,8.05
2022-11-17T01:06:09.511Z,6.63
2022-11-17T01:08:36.165Z,6.70
2022-11-17T01:11:13.771Z,4.75
2022-11-17T01:13:40.607Z,6.35
2022-11-17T01:16:14.805Z,5.50
2022-11-17T01:18:41.895Z,4.80
2022-11-17T01:21:22.681Z,6.00
2022-11-17T01:23:50.208Z,5.82
2022-11-17T01:26:21.760Z,5.20
2022-11-17T01:28:48.417Z,5.35
2022-11-17T01:31:16.644Z,4.53
2022-11-17T01:33:43.180Z,4.65
2022-11-17T01:36:17.394Z,5.57
2022-11-17T01:38:44.241Z,5.13
2022-11-17T01:41:18.458Z,6.00
2022-11-17T01:43:45.921Z,5.55
2022-11-17T01:46:33.791Z,5.80
2022-11-17T01:49:13.037Z,5.13
2022-11-17T01:51:42.058Z,4.80
2022-11-17T01:54:08.674Z,5.40
2022-11-17T01:56:38.873Z,5.35
2022-11-17T01:59:28.880Z,3.88
2022-11-17T02:01:55.906Z,3.72
2022-11-17T02:04:49.944Z,5.35
2022-11-17T02:07:27.015Z,3.83
2022-11-17T02:09:54.002Z,4.28
2022-11-17T02:12:20.760Z,4.70
2022-11-17T02:14:48.718Z,2.97
2022-11-17T02:17:15.223Z,3.65
2022-11-17T02:19:42.933Z,3.22
2022-11-17T02:22:31.639Z,2.70
2022-11-17T02:25:20.654Z,3.45
2022-11-17T02:28:11.003Z,2.50
2022-11-17T02:30:48.147Z,4.35
2022-11-17T02:33:24.979Z,3.38
2022-11-17T02:35:54.273Z,4.38
2022-11-17T02:38:27.329Z,3.80
2022-11-17T02:41:13.365Z,2.60
2022-11-17T02:44:05.887Z,2.22
2022-11-17T02:46:43.224Z,3.20
2022-11-17T02:49:15.943Z,2.90
2022-11-17T02:51:42.830Z,3.83
2022-11-17T02:54:09.368Z,2.88
2022-11-17T02:56:41.140Z,2.95
2022-11-17T02:59:07.606Z,2.28
2022-11-17T03:01:47.651Z,3.10
2022-11-17T03:04:23.171Z,2.20
2022-11-17T03:07:01.030Z,2.80
2022-11-17T03:09:54.223Z,2.55
2022-11-17T03:12:29.585Z,3.10
2022-11-17T03:15:04.266Z,3.00
2022-11-17T03:17:34.978Z,2.42
2022-11-17T03:20:12.449Z,3.20
2022-11-17T03:22:51.192Z,1.92
2022-11-17T03:25:19.072Z,2.90
2022-11-17T03:27:47.473Z,2.10
2022-11-17T03:30:13.982Z,2.30
2022-11-17T03:32:41.476Z,2.78
2022-11-17T03:35:14.357Z,1.60
2022-11-17T03:37:43.807Z,2.25
2022-11-17T03:40:11.881Z,3.13
2022-11-17T03:42:40.666Z,4.05
2022-11-17T03:45:15.709Z,2.17
2022-11-17T03:47:42.242Z,3.08
2022-11-17T03:50:17.240Z,4.55
2022-11-17T03:52:43.848Z,2.67
2022-11-17T03:55:12.417Z,2.78
2022-11-17T03:57:38.802Z,5.50
2022-11-17T04:00:06.716Z,5.97
2022-11-17T04:02:33.219Z,5.38
2022-11-17T04:05:05.471Z,4.60
2022-11-17T04:07:40.460Z,5.32
2022-11-17T04:10:11.317Z,6.90
2022-11-17T04:12:56.425Z,6.80
2022-11-17T04:15:41.489Z,7.07
2022-11-17T04:18:08.039Z,7.28
2022-11-17T04:20:37.149Z,6.88
2022-11-17T04:23:07.716Z,7.03
2022-11-17T04:25:56.234Z,8.60
2022-11-17T04:28:38.629Z,8.02
2022-11-17T04:31:26.342Z,8.45
2022-11-17T04:33:56.972Z,6.55
2022-11-17T04:36:27.823Z,7.40
2022-11-17T04:38:55.266Z,6.88
2022-11-17T04:41:41.017Z,10.00
2022-11-17T04:44:08.364Z,9.93
2022-11-17T04:46:35.353Z,5.95
2022-11-17T04:49:01.921Z,5.93
2022-11-17T04:51:28.630Z,10.50
2022-11-17T04:53:55.170Z,8.27
2022-11-17T04:56:22.084Z,6.25
2022-11-17T04:58:48.630Z,8.57
2022-11-17T05:01:17.380Z,5.78
2022-11-17T05:03:50.467Z,5.93
2022-11-17T05:06:22.947Z,7.38
2022-11-17T05:08:49.673Z,6.22
2022-11-17T05:11:35.285Z,7.82
2022-11-17T05:14:02.141Z,5.53
2022-11-17T05:16:47.354Z,5.75
2022-11-17T05:19:16.003Z,6.15
2022-11-17T05:21:42.475Z,7.15
2022-11-17T05:24:09.166Z,5.95
2022-11-17T05:26:36.492Z,6.22
2022-11-17T05:29:04.222Z,7.93
2022-11-17T05:31:30.734Z,5.30
2022-11-17T05:33:57.258Z,4.63
2022-11-17T05:36:24.188Z,5.60
2022-11-17T05:38:50.936Z,5.68
2022-11-17T05:41:17.540Z,5.82
2022-11-17T05:43:44.499Z,4.45
2022-11-17T05:46:11.029Z,4.68
2022-11-17T05:48:37.536Z,3.15
2022-11-17T05:51:04.160Z,5.68
2022-11-17T05:53:30.828Z,4.93
2022-11-17T05:56:08.519Z,4.93
2022-11-17T05:58:35.030Z,4.20
2022-11-17T06:01:01.504Z,4.90
2022-11-17T06:03:34.179Z,4.97
2022-11-17T06:06:00.912Z,4.95
2022-11-17T06:08:29.069Z,3.50
2022-11-17T06:10:55.896Z,4.70
2022-11-17T06:13:28.900Z,6.35
2022-11-17T06:15:55.493Z,3.45
2022-11-17T06:18:24.579Z,8.30
2022-11-17T06:20:52.138Z,5.13
2022-11-17T06:23:18.606Z,7.53
2022-11-17T06:25:45.074Z,8.95
2022-11-17T06:28:13.749Z,8.23
2022-11-17T06:30:40.275Z,5.57
2022-11-17T06:33:11.043Z,5.95
2022-11-17T06:35:37.701Z,3.67
2022-11-17T06:38:04.221Z,4.10
2022-11-17T06:40:30.706Z,3.72
2022-11-17T06:43:12.438Z,3.20
2022-11-17T06:45:40.579Z,7.47
2022-11-17T06:48:07.430Z,5.70
2022-11-17T06:50:34.351Z,4.47
2022-11-17T06:53:04.513Z,5.00
2022-11-17T06:55:31.007Z,4.78
2022-11-17T06:58:06.472Z,5.93
2022-11-17T07:00:33.346Z,3.75
2022-11-17T07:03:04.110Z,4.38
2022-11-17T07:05:34.208Z,4.80
2022-11-17T07:08:01.747Z,4.22
2022-11-17T07:10:28.605Z,5.30
2022-11-17T07:12:55.119Z,2.72
2022-11-17T07:15:21.592Z,4.22
2022-11-17T07:17:48.315Z,4.75
2022-11-17T07:20:14.870Z,3.25
2022-11-17T07:22:41.526Z,4.68
2022-11-17T07:25:08.238Z,3.33
2022-11-17T07:27:34.688Z,3.80
2022-11-17T07:30:01.542Z,4.90
2022-11-17T07:32:27.993Z,4.22
2022-11-17T07:34:54.780Z,3.15
2022-11-17T07:37:21.303Z,3.03
2022-11-17T07:39:47.754Z,2.55
2022-11-17T07:42:14.211Z,2.92
2022-11-17T07:44:40.705Z,2.97
2022-11-17T07:47:07.211Z,3.20
2022-11-17T07:49:33.687Z,2.95
2022-11-17T07:52:01.070Z,3.35
2022-11-17T07:54:28.249Z,1.73
2022-11-17T07:56:54.890Z,2.55
2022-11-17T07:59:21.753Z,2.75
2022-11-17T08:01:48.291Z,1.77
2022-11-17T08:04:14.798Z,2.65
2022-11-17T08:06:41.255Z,1.52
2022-11-17T08:09:10.628Z,2.03
2022-11-17T08:11:37.118Z,3.47
2022-11-17T08:14:03.590Z,2.65
2022-11-17T08:16:30.782Z,14.70
2022-11-17T08:18:57.671Z,7.60
2022-11-17T08:21:24.202Z,2.78
2022-11-17T08:23:53.171Z,1.80
2022-11-17T08:26:24.905Z,5.63
2022-11-17T08:28:57.940Z,3.88
2022-11-17T08:31:25.263Z,2.40
2022-11-17T08:33:51.736Z,6.55
2022-11-17T08:36:18.195Z,1.45
2022-11-17T08:38:44.695Z,2.90
2022-11-17T08:41:11.230Z,3.97
2022-11-17T08:43:37.692Z,3.72
2022-11-17T08:46:04.247Z,2.08
2022-11-17T08:48:31.564Z,2.97
2022-11-17T08:50:58.055Z,3.67
2022-11-17T08:53:24.650Z,2.08
2022-11-17T08:55:51.985Z,3.17
2022-11-17T08:58:18.586Z,1.10
2022-11-17T09:00:48.009Z,2.97
2022-11-17T09:03:14.589Z,1.52
2022-11-17T09:05:42.473Z,7.70
2022-11-17T09:08:38.374Z,2.35
2022-11-17T09:10:55.856Z,4.78
2022-11-17T09:13:22.316Z,4.22
2022-11-17T09:15:48.838Z,4.50
2022-11-17T09:18:15.665Z,1.58
2022-11-17T09:20:45.936Z,4.13
2022-11-17T09:23:14.854Z,11.55
2022-11-17T09:25:41.408Z,4.30
2022-11-17T09:28:07.931Z,8.32
2022-11-17T09:30:34.410Z,6.80
2022-11-17T09:33:00.885Z,9.07
2022-11-17T09:35:27.414Z,22.48
2022-11-17T09:37:58.809Z,13.18
2022-11-17T09:40:25.267Z,11.48
2022-11-17T09:42:51.720Z,11.63
2022-11-17T09:45:20.856Z,17.05
2022-11-17T09:47:51.495Z,2.58
2022-11-17T09:50:22.110Z,4.88
2022-11-17T09:53:17.588Z,8.23
2022-11-17T09:55:49.259Z,6.45
2022-11-17T09:58:38.470Z,3.22
2022-11-17T10:01:05.294Z,7.70
2022-11-17T10:03:33.024Z,3.35
2022-11-17T10:06:00.838Z,3.03
2022-11-17T10:08:38.345Z,4.43
2022-11-17T10:11:30.161Z,4.25
2022-11-17T10:13:56.633Z,5.05
2022-11-17T10:16:23.208Z,4.53
2022-11-17T10:18:49.666Z,3.05
2022-11-17T10:21:16.124Z,1.65
2022-11-17T10:23:46.886Z,2.47
2022-11-17T10:26:14.842Z,1.73
2022-11-17T10:28:41.315Z,2.30
2022-11-17T10:31:11.631Z,3.15
2022-11-17T10:33:48.916Z,0.85
2022-11-17T10:36:26.604Z,1.92
2022-11-17T10:38:54.153Z,3.65
2022-11-17T10:41:41.795Z,3.15
2022-11-17T10:44:27.961Z,3.88
2022-11-17T10:47:02.414Z,2.88
2022-11-17T10:49:36.352Z,0.80
2022-11-17T10:52:06.699Z,3.20
2022-11-17T10:54:33.195Z,3.15
2022-11-17T10:56:59.947Z,0.65
2022-11-17T10:59:32.021Z,2.58
2022-11-17T11:01:58.667Z,6.70
2022-11-17T11:04:41.368Z,4.20
2022-11-17T11:07:10.738Z,4.13
2022-11-17T11:09:40.034Z,1.67
2022-11-17T11:12:10.223Z,1.52
2022-11-17T11:14:41.673Z,2.45
2022-11-17T11:17:12.966Z,0.73
2022-11-17T11:19:41.318Z,0.75
2022-11-17T11:22:25.983Z,3.92
2022-11-17T11:25:01.693Z,2.33
2022-11-17T11:27:43.207Z,3.92
2022-11-17T11:30:11.183Z,2.22
2022-11-17T11:33:23.769Z,1.10
2022-11-17T11:35:54.936Z,1.48
2022-11-17T11:38:41.194Z,2.42
2022-11-17T11:41:21.462Z,1.40
2022-11-17T11:44:19.272Z,2.22
2022-11-17T11:46:53.901Z,1.35
2022-11-17T11:49:34.962Z,0.88
2022-11-17T11:52:02.346Z,0.55
2022-11-17T11:54:53.036Z,4.07
2022-11-17T11:57:30.675Z,1.73
2022-11-17T12:00:04.064Z,0.57
2022-11-17T12:02:42.112Z,15.73
2022-11-17T12:05:16.448Z,10.35
2022-11-17T12:08:05.997Z,7.40
2022-11-17T12:10:45.490Z,2.10
2022-11-17T12:13:18.541Z,3.90
2022-11-17T12:15:45.060Z,1.25
2022-11-17T12:18:12.792Z,3.20
2022-11-17T12:20:39.164Z,10.18
2022-11-17T12:23:24.158Z,5.18
2022-11-17T12:25:54.133Z,1.58
2022-11-17T12:28:36.723Z,1.60
2022-11-17T12:31:09.688Z,0.95
2022-11-17T12:33:51.612Z,2.63
2022-11-17T12:36:28.691Z,3.92
2022-11-17T12:38:57.780Z,1.27
2022-11-17T12:41:49.282Z,2.63
2022-11-17T12:44:37.560Z,2.00
2022-11-17T12:47:18.862Z,1.90
2022-11-17T12:50:06.738Z,2.17
2022-11-17T12:52:51.884Z,4.78
2022-11-17T12:55:55.940Z,1.75
2022-11-17T12:58:32.271Z,0.43
2022-11-17T13:01:09.252Z,2.42
2022-11-17T13:03:54.355Z,2.88
2022-11-17T13:06:35.085Z,2.17
2022-11-17T13:09:07.271Z,1.10
2022-11-17T13:11:33.949Z,2.10
2022-11-17T13:14:11.261Z,0.93
2022-11-17T13:16:44.156Z,1.42
2022-11-17T13:19:25.872Z,1.35
2022-11-17T13:22:18.774Z,2.38
2022-11-17T13:24:46.677Z,4.13
2022-11-17T13:27:31.496Z,1.38
2022-11-17T13:30:23.128Z,1.05
2022-11-17T13:32:49.802Z,5.30
2022-11-17T13:35:26.492Z,0.85
2022-11-17T13:38:06.426Z,0.63
2022-11-17T13:40:33.977Z,3.63
2022-11-17T13:43:01.023Z,1.52
2022-11-17T13:45:27.534Z,1.02
2022-11-17T13:47:54.787Z,3.33
2022-11-17T13:50:21.156Z,0.93
2022-11-17T13:52:47.806Z,2.22
2022-11-17T13:55:17.799Z,0.95
2022-11-17T13:58:03.049Z,3.35
2022-11-17T14:00:29.583Z,1.83
2022-11-17T14:03:00.866Z,2.35
2022-11-17T14:05:28.395Z,1.02
2022-11-17T14:07:57.036Z,2.05
2022-11-17T14:10:28.251Z,2.67
2022-11-17T14:13:00.746Z,1.33
2022-11-17T14:15:31.531Z,3.33
2022-11-17T14:17:59.273Z,3.63
2022-11-17T14:20:25.920Z,2.55
2022-11-17T14:23:11.311Z,1.67
2022-11-17T14:25:44.694Z,4.45
2022-11-17T14:28:21.021Z,2.83
2022-11-17T14:30:48.366Z,5.03
2022-11-17T14:33:14.927Z,1.42
2022-11-17T14:35:41.877Z,3.63
2022-11-17T14:38:15.691Z,2.33
2022-11-17T14:40:42.180Z,2.30
2022-11-17T14:43:08.664Z,2.15
2022-11-17T14:45:37.885Z,2.22
2022-11-17T14:48:07.656Z,1.58
2022-11-17T14:50:34.213Z,3.65
2022-11-17T14:53:00.674Z,1.88
2022-11-17T14:55:27.397Z,1.05
2022-11-17T14:57:53.958Z,1.05
2022-11-17T15:00:21.750Z,1.73
2022-11-17T15:02:48.408Z,3.80
2022-11-17T15:05:15.220Z,0.70
2022-11-17T15:07:42.465Z,0.75
2022-11-17T15:10:09.161Z,0.52
2022-11-17T15:12:35.780Z,1.35
2022-11-17T15:15:02.232Z,2.17
2022-11-17T15:17:29.020Z,1.45
2022-11-17T15:19:55.615Z,0.82
2022-11-17T15:22:22.091Z,0.32
2022-11-17T15:24:48.560Z,2.60
2022-11-17T15:27:15.131Z,0.95
2022-11-17T15:29:41.846Z,2.25
2022-11-17T15:32:08.368Z,1.80
2022-11-17T15:34:37.879Z,1.10
2022-11-17T15:37:05.425Z,0.77
2022-11-17T15:39:32.028Z,1.35
2022-11-17T15:41:58.512Z,0.52
2022-11-17T15:44:25.054Z,1.17
2022-11-17T15:46:51.535Z,1.15
2022-11-17T15:49:18.513Z,1.00
2022-11-17T15:51:45.266Z,0.77
2022-11-17T15:54:16.398Z,2.05
2022-11-17T15:56:46.319Z,0.82
2022-11-17T15:59:12.965Z,0.95
2022-11-17T16:01:39.595Z,0.60
2022-11-17T16:04:10.400Z,0.70
2022-11-17T16:06:41.155Z,1.23
2022-11-17T16:09:07.719Z,1.35
2022-11-17T16:11:34.374Z,0.93
2022-11-17T16:14:01.008Z,0.85
2022-11-17T16:16:28.942Z,0.70
2022-11-17T16:18:55.485Z,0.65
2022-11-17T16:21:21.983Z,0.75
2022-11-17T16:23:49.872Z,1.10
2022-11-17T16:26:17.678Z,0.52
2022-11-17T16:28:44.209Z,1.13
2022-11-17T16:31:14.633Z,0.47
2022-11-17T16:33:41.337Z,2.78
2022-11-17T16:36:08.432Z,0.80
2022-11-17T16:38:35.242Z,1.75
2022-11-17T16:41:01.782Z,2.10
2022-11-17T16:43:28.253Z,2.03
2022-11-17T16:45:54.734Z,1.80
2022-11-17T16:48:21.203Z,6.68
2022-11-17T16:50:47.732Z,2.08
2022-11-17T16:53:14.293Z,2.15
2022-11-17T16:55:40.761Z,0.90
2022-11-17T16:58:07.311Z,2.90
2022-11-17T17:00:34.793Z,1.13
2022-11-17T17:03:01.821Z,0.90
2022-11-17T17:05:29.436Z,5.47
2022-11-17T17:07:56.209Z,2.35
2022-11-17T17:10:23.423Z,1.80
2022-11-17T17:12:49.907Z,5.35
2022-11-17T17:15:16.438Z,2.33
2022-11-17T17:17:42.921Z,0.95
2022-11-17T17:20:09.956Z,0.88
2022-11-17T17:22:36.431Z,7.45
2022-11-17T17:25:06.875Z,1.05
2022-11-17T17:27:33.449Z,3.15
2022-11-17T17:29:59.905Z,2.13
2022-11-17T17:32:26.377Z,1.60
2022-11-17T17:34:52.833Z,3.90
2022-11-17T17:37:19.297Z,1.65
2022-11-17T17:39:45.765Z,2.63
2022-11-17T17:42:12.612Z,3.13
2022-11-17T17:44:39.202Z,2.58
2022-11-17T17:47:05.782Z,4.00
2022-11-17T17:49:32.265Z,1.17
2022-11-17T17:51:58.732Z,2.15
2022-11-17T17:54:25.989Z,3.10
2022-11-17T17:56:52.867Z,1.15
2022-11-17T17:59:19.824Z,2.53
2022-11-17T18:01:48.095Z,3.53
2022-11-17T18:04:16.576Z,1.75
2022-11-17T18:06:45.916Z,4.60
2022-11-17T18:09:14.471Z,4.18
2022-11-17T18:11:51.152Z,2.28
2022-11-17T18:14:20.991Z,5.65
2022-11-17T18:16:47.922Z,3.63
2022-11-17T18:19:14.708Z,4.32
2022-11-17T18:21:41.437Z,6.38
2022-11-17T18:24:08.284Z,5.32
2022-11-17T18:26:35.420Z,3.83
2022-11-17T18:29:06.868Z,3.85
2022-11-17T18:31:34.664Z,6.07
2022-11-17T18:34:03.251Z,3.63
2022-11-17T18:36:30.469Z,2.15
2022-11-17T18:38:58.563Z,4.70
2022-11-17T18:41:25.359Z,2.67
2022-11-17T18:43:52.362Z,3.70
2022-11-17T18:46:21.254Z,3.95
2022-11-17T18:48:48.480Z,4.10
2022-11-17T18:51:20.543Z,2.83
2022-11-17T18:53:51.679Z,4.93
2022-11-17T18:56:26.487Z,6.60
2022-11-17T18:58:52.989Z,2.70
2022-11-17T19:01:20.965Z,3.88
2022-11-17T19:03:48.976Z,4.68
2022-11-17T19:06:16.362Z,3.22
2022-11-17T19:08:42.841Z,2.58
2022-11-17T19:11:09.593Z,1.33
2022-11-17T19:13:37.143Z,4.65
2022-11-17T19:16:23.211Z,1.48
2022-11-17T19:18:50.824Z,2.22
2022-11-17T19:21:20.480Z,1.45
2022-11-17T19:23:51.546Z,1.95
2022-11-17T19:26:22.912Z,2.20
2022-11-17T19:28:49.546Z,1.27
2022-11-17T19:31:19.486Z,2.00
2022-11-17T19:33:46.551Z,1.70
2022-11-17T19:36:33.341Z,2.38
2022-11-17T19:39:00.427Z,2.92
2022-11-17T19:41:28.334Z,3.28
2022-11-17T19:43:55.584Z,2.17
2022-11-17T19:46:22.690Z,3.30
2022-11-17T19:48:49.179Z,2.08
2022-11-17T19:51:17.246Z,2.70
2022-11-17T19:53:43.784Z,2.75
2022-11-17T19:56:10.391Z,3.20
2022-11-17T19:58:37.068Z,5.65
2022-11-17T20:01:10.783Z,4.18
2022-11-17T20:03:37.978Z,2.13
2022-11-17T20:06:04.686Z,2.30
2022-11-17T20:08:31.397Z,2.70
2022-11-17T20:11:09.453Z,0.93
2022-11-17T20:13:36.011Z,1.85
2022-11-17T20:16:07.428Z,1.63
2022-11-17T20:18:36.934Z,1.00
2022-11-17T20:21:05.297Z,2.88
2022-11-17T20:23:35.155Z,1.25
2022-11-17T20:26:21.713Z,1.40
2022-11-17T20:28:48.227Z,1.92
2022-11-17T20:31:16.502Z,0.80
2022-11-17T20:33:43.314Z,0.90
2022-11-17T20:36:12.232Z,1.17
2022-11-17T20:38:38.719Z,1.80
2022-11-17T20:41:05.508Z,2.35
2022-11-17T20:43:32.113Z,1.17
2022-11-17T20:45:58.659Z,1.88
2022-11-17T20:48:25.291Z,1.67
2022-11-17T20:51:11.267Z,1.25
2022-11-17T20:53:37.804Z,0.80
2022-11-17T20:56:06.090Z,3.33
2022-11-17T20:58:32.544Z,1.83
2022-11-17T21:00:59.059Z,1.73
2022-11-17T21:03:28.626Z,0.85
2022-11-17T21:05:59.679Z,2.40
2022-11-17T21:08:27.585Z,2.88
2022-11-17T21:10:55.690Z,2.15
2022-11-17T21:13:22.401Z,1.00
2022-11-17T21:15:48.903Z,0.70
2022-11-17T21:18:24.301Z,1.40
2022-11-17T21:20:50.863Z,0.88
2022-11-17T21:23:17.766Z,0.95
2022-11-17T21:25:44.239Z,0.95
2022-11-17T21:28:10.718Z,0.73
2022-11-17T21:30:37.175Z,2.17
2022-11-17T21:33:03.779Z,1.10
2022-11-17T21:35:30.239Z,1.55
2022-11-17T21:37:56.750Z,0.68
2022-11-17T21:40:23.300Z,0.70
2022-11-17T21:42:49.782Z,0.93
2022-11-17T21:45:16.653Z,1.65
2022-11-17T21:47:43.137Z,0.70
2022-11-17T21:50:10.097Z,2.65
2022-11-17T21:52:36.577Z,0.88
2022-11-17T21:55:03.030Z,1.60
2022-11-17T21:57:29.509Z,2.88
2022-11-17T21:59:55.969Z,0.98
2022-11-17T22:02:22.455Z,1.50
2022-11-17T22:04:48.924Z,0.70
2022-11-17T22:07:15.452Z,1.08
2022-11-17T22:09:42.232Z,0.90
2022-11-17T22:12:08.775Z,1.15
2022-11-17T22:14:35.239Z,0.63
2022-11-17T22:17:01.750Z,0.70
2022-11-17T22:19:29.372Z,1.02
2022-11-17T22:21:55.858Z,1.60
2022-11-17T22:24:22.409Z,1.80
2022-11-17T22:26:48.986Z,1.13
2022-11-17T22:29:17.815Z,0.90
2022-11-17T22:31:45.295Z,1.30
2022-11-17T22:34:12.428Z,0.50
2022-11-17T22:36:38.929Z,1.10
2022-11-17T22:39:05.403Z,1.23
2022-11-17T22:41:31.892Z,0.90
2022-11-17T22:43:58.543Z,1.15
2022-11-17T22:46:26.182Z,0.82
2022-11-17T22:48:53.165Z,2.25
2022-11-17T22:51:38.394Z,1.73
2022-11-17T22:54:05.601Z,0.90
2022-11-17T22:56:32.279Z,1.17
2022-11-17T22:58:59.995Z,0.65
2022-11-17T23:01:26.738Z,1.25
2022-11-17T23:03:53.291Z,0.57
2022-11-17T23:06:19.862Z,0.70
2022-11-17T23:08:46.345Z,0.50
2022-11-17T23:11:36.029Z,0.85
2022-11-17T23:13:59.335Z,0.80
2022-11-17T23:16:25.855Z,0.75
2022-11-17T23:18:53.535Z,1.00
2022-11-17T23:21:20.046Z,0.70
2022-11-17T23:23:46.349Z,0.70
2022-11-17T23:26:12.911Z,0.55
2022-11-17T23:28:40.062Z,0.63
2022-11-17T23:31:08.335Z,1.00
2022-11-17T23:33:39.056Z,2.20
2022-11-17T23:36:06.575Z,0.60
2022-11-17T23:38:33.184Z,1.05
2022-11-17T23:41:03.634Z,1.02
2022-11-17T23:43:30.140Z,0.93
2022-11-17T23:45:56.841Z,0.70
2022-11-17T23:48:23.373Z,0.90
2022-11-17T23:50:50.002Z,0.90
2022-11-17T23:53:16.496Z,1.00
2022-11-17T23:55:42.988Z,0.70
2022-11-17T23:58:09.458Z,0.90
